createdAt,value
2023-07-15T00:01:39.347Z,69.74
2023-07-15T00:04:14.525Z,70.12
2023-07-15T00:06:43.100Z,70.53
2023-07-15T00:09:11.859Z,70.42
2023-07-15T00:11:46.451Z,70.63
2023-07-15T00:14:23.919Z,71.21
2023-07-15T00:16:52.755Z,71.63
2023-07-15T00:19:21.674Z,71.53
2023-07-15T00:21:51.053Z,71.61
2023-07-15T00:24:19.605Z,71.82
2023-07-15T00:26:49.827Z,71.94
2023-07-15T00:29:18.762Z,72.20
2023-07-15T00:31:46.827Z,72.41
2023-07-15T00:34:15.795Z,72.52
2023-07-15T00:36:43.760Z,72.86
2023-07-15T00:39:12.069Z,72.90
2023-07-15T00:41:40.050Z,73.41
2023-07-15T00:44:16.591Z,73.68
2023-07-15T00:47:14.951Z,74.13
2023-07-15T00:49:43.744Z,75.16
2023-07-15T00:52:16.809Z,74.74
2023-07-15T00:54:48.292Z,75.24
2023-07-15T00:57:20.256Z,75.02
2023-07-15T00:59:50.044Z,75.09
2023-07-15T01:02:18.500Z,74.97
2023-07-15T01:04:48.263Z,74.78
2023-07-15T01:07:17.610Z,74.92
2023-07-15T01:09:46.552Z,75.10
2023-07-15T01:12:15.140Z,75.24
2023-07-15T01:14:45.098Z,75.43
2023-07-15T01:17:13.200Z,75.65
2023-07-15T01:19:41.288Z,76.06
2023-07-15T01:22:10.016Z,76.44
2023-07-15T01:24:38.604Z,76.89
2023-07-15T01:27:10.170Z,77.44
2023-07-15T01:29:38.625Z,78.00
2023-07-15T01:32:07.670Z,77.87
2023-07-15T01:34:35.648Z,78.40
2023-07-15T01:37:03.651Z,78.45
2023-07-15T01:39:31.940Z,78.82
2023-07-15T01:41:59.918Z,79.40
2023-07-15T01:44:27.959Z,79.24
2023-07-15T01:46:56.021Z,79.54
2023-07-15T01:49:23.988Z,79.74
2023-07-15T01:51:51.903Z,79.67
2023-07-15T01:54:19.856Z,80.09
2023-07-15T01:56:48.549Z,80.46
2023-07-15T01:59:16.518Z,80.32
2023-07-15T02:01:44.463Z,80.51
2023-07-15T02:04:12.424Z,80.54
2023-07-15T02:06:40.370Z,80.82
2023-07-15T02:09:10.463Z,80.80
2023-07-15T02:11:38.433Z,80.85
2023-07-15T02:14:06.760Z,81.21
2023-07-15T02:16:34.778Z,80.84
2023-07-15T02:19:02.821Z,81.07
2023-07-15T02:21:30.910Z,81.11
2023-07-15T02:23:58.843Z,81.27
2023-07-15T02:26:26.717Z,81.37
2023-07-15T02:28:55.452Z,81.61
2023-07-15T02:31:23.746Z,82.17
2023-07-15T02:33:51.677Z,81.95
2023-07-15T02:36:21.077Z,81.56
2023-07-15T02:38:49.028Z,81.79
2023-07-15T02:41:17.002Z,82.23
2023-07-15T02:43:44.950Z,81.83
2023-07-15T02:46:13.179Z,82.08
2023-07-15T02:48:41.226Z,82.09
2023-07-15T02:51:09.221Z,82.32
2023-07-15T02:53:37.394Z,82.68
2023-07-15T02:56:05.875Z,83.29
2023-07-15T02:58:33.997Z,83.33
2023-07-15T03:01:01.935Z,83.37
2023-07-15T03:03:29.905Z,84.44
2023-07-15T03:05:58.421Z,84.51
2023-07-15T03:08:26.777Z,84.76
2023-07-15T03:10:55.888Z,85.60
2023-07-15T03:13:24.423Z,86.28
2023-07-15T03:15:52.354Z,86.34
2023-07-15T03:18:20.230Z,86.56
2023-07-15T03:20:48.090Z,87.51
2023-07-15T03:23:16.057Z,87.91
2023-07-15T03:25:44.023Z,87.69
2023-07-15T03:28:12.309Z,88.95
2023-07-15T03:30:40.299Z,89.07
2023-07-15T03:33:08.321Z,88.80
2023-07-15T03:35:36.439Z,89.05
2023-07-15T03:38:04.612Z,89.16
2023-07-15T03:40:32.579Z,89.36
2023-07-15T03:43:00.464Z,89.32
2023-07-15T03:45:28.471Z,88.78
2023-07-15T03:47:56.484Z,89.20
2023-07-15T03:50:24.361Z,89.02
2023-07-15T03:52:52.255Z,89.07
2023-07-15T03:55:20.277Z,89.07
2023-07-15T03:57:48.219Z,88.87
2023-07-15T04:00:19.636Z,89.40
2023-07-15T04:02:48.839Z,88.94
2023-07-15T04:05:16.876Z,88.41
2023-07-15T04:07:44.797Z,88.78
2023-07-15T04:10:13.759Z,88.37
2023-07-15T04:12:41.953Z,88.33
2023-07-15T04:15:10.503Z,88.34
2023-07-15T04:17:38.465Z,88.51
2023-07-15T04:20:13.348Z,87.92
2023-07-15T04:22:41.721Z,88.07
2023-07-15T04:25:10.068Z,88.13
2023-07-15T04:27:37.987Z,87.64
2023-07-15T04:30:07.790Z,87.71
2023-07-15T04:32:35.774Z,87.59
2023-07-15T04:35:04.615Z,87.06
2023-07-15T04:37:33.020Z,87.12
2023-07-15T04:40:00.991Z,87.12
2023-07-15T04:42:28.960Z,86.71
2023-07-15T04:44:56.967Z,86.98
2023-07-15T04:47:24.898Z,86.98
2023-07-15T04:49:52.798Z,87.26
2023-07-15T04:52:20.776Z,86.85
2023-07-15T04:54:48.734Z,87.19
2023-07-15T04:57:19.369Z,87.40
2023-07-15T04:59:48.514Z,87.20
2023-07-15T05:02:16.593Z,87.39
2023-07-15T05:04:44.626Z,88.31
2023-07-15T05:07:12.741Z,88.35
2023-07-15T05:09:40.694Z,88.33
2023-07-15T05:12:09.151Z,88.62
2023-07-15T05:14:37.278Z,88.54
2023-07-15T05:17:08.418Z,89.22
2023-07-15T05:19:36.516Z,89.67
2023-07-15T05:22:04.688Z,89.49
2023-07-15T05:24:33.486Z,89.38
2023-07-15T05:27:01.433Z,89.51
2023-07-15T05:29:29.488Z,89.60
2023-07-15T05:31:57.458Z,89.31
2023-07-15T05:34:25.473Z,89.34
2023-07-15T05:36:53.508Z,89.62
2023-07-15T05:39:23.403Z,89.37
2023-07-15T05:41:51.885Z,88.94
2023-07-15T05:44:19.773Z,88.97
2023-07-15T05:46:47.686Z,88.99
2023-07-15T05:49:15.669Z,88.93
2023-07-15T05:51:43.666Z,88.96
2023-07-15T05:54:11.718Z,89.13
2023-07-15T05:56:39.860Z,89.04
2023-07-15T05:59:07.809Z,88.95
2023-07-15T06:01:35.809Z,88.69
2023-07-15T06:04:03.819Z,88.41
2023-07-15T06:06:31.739Z,87.58
2023-07-15T06:08:59.825Z,87.05
2023-07-15T06:11:27.784Z,86.84
2023-07-15T06:13:55.725Z,86.94
2023-07-15T06:16:24.157Z,87.17
2023-07-15T06:18:52.097Z,87.25
2023-07-15T06:21:20.064Z,87.34
2023-07-15T06:23:48.136Z,87.78
2023-07-15T06:26:16.355Z,87.59
2023-07-15T06:28:44.463Z,87.38
2023-07-15T06:31:14.544Z,87.25
2023-07-15T06:33:46.982Z,87.06
2023-07-15T06:36:15.290Z,86.91
2023-07-15T06:38:43.213Z,86.58
2023-07-15T06:41:11.166Z,85.95
2023-07-15T06:43:39.194Z,85.03
2023-07-15T06:46:08.829Z,83.75
2023-07-15T06:48:37.055Z,82.48
2023-07-15T06:51:05.133Z,81.12
2023-07-15T06:53:33.100Z,79.38
2023-07-15T06:56:14.373Z,78.05
2023-07-15T06:58:46.762Z,77.30
2023-07-15T07:01:15.201Z,76.45
2023-07-15T07:03:43.630Z,75.65
2023-07-15T07:06:11.680Z,74.57
2023-07-15T07:08:39.719Z,74.00
2023-07-15T07:11:07.654Z,73.74
2023-07-15T07:13:35.588Z,73.27
2023-07-15T07:16:03.555Z,72.58
2023-07-15T07:18:31.551Z,72.01
2023-07-15T07:21:00.772Z,71.49
2023-07-15T07:23:29.267Z,70.82
2023-07-15T07:25:57.266Z,70.28
2023-07-15T07:28:39.112Z,70.20
2023-07-15T07:31:07.221Z,70.27
2023-07-15T07:33:39.037Z,70.11
2023-07-15T07:36:07.181Z,69.92
2023-07-15T07:38:35.321Z,69.61
2023-07-15T07:41:11.374Z,69.56
2023-07-15T07:43:42.987Z,68.58
2023-07-15T07:46:13.224Z,68.71
2023-07-15T07:48:44.150Z,68.04
2023-07-15T07:51:12.073Z,66.80
2023-07-15T07:53:40.275Z,66.41
2023-07-15T07:56:08.264Z,66.61
2023-07-15T07:58:36.403Z,66.53
2023-07-15T08:01:04.826Z,66.31
2023-07-15T08:03:33.037Z,65.93
2023-07-15T08:06:02.258Z,65.24
2023-07-15T08:08:30.345Z,65.08
2023-07-15T08:10:58.543Z,64.96
2023-07-15T08:13:26.637Z,64.44
2023-07-15T08:15:54.666Z,64.17
2023-07-15T08:18:22.899Z,63.82
2023-07-15T08:20:51.012Z,63.34
2023-07-15T08:23:19.922Z,62.72
2023-07-15T08:25:48.328Z,62.16
2023-07-15T08:28:16.327Z,61.50
2023-07-15T08:30:44.381Z,61.15
2023-07-15T08:33:12.387Z,60.80
2023-07-15T08:35:40.491Z,60.24
2023-07-15T08:38:08.423Z,59.81
2023-07-15T08:40:37.640Z,59.11
2023-07-15T08:43:06.683Z,58.40
2023-07-15T08:45:36.473Z,58.25
2023-07-15T08:48:04.710Z,58.18
2023-07-15T08:50:35.855Z,58.07
2023-07-15T08:53:04.602Z,57.07
2023-07-15T08:55:33.512Z,56.91
2023-07-15T08:58:02.213Z,56.45
2023-07-15T09:00:30.501Z,56.03
2023-07-15T09:02:58.683Z,55.99
2023-07-15T09:05:26.713Z,55.94
2023-07-15T09:07:59.402Z,55.91
2023-07-15T09:10:30.549Z,55.41
2023-07-15T09:12:58.600Z,55.37
2023-07-15T09:15:26.701Z,54.73
2023-07-15T09:17:56.388Z,54.00
2023-07-15T09:20:25.983Z,53.66
2023-07-15T09:22:59.364Z,53.47
2023-07-15T09:25:29.539Z,52.44
2023-07-15T09:27:57.716Z,52.50
2023-07-15T09:30:25.816Z,52.56
2023-07-15T09:39:58.681Z,51.15
2023-07-15T09:42:29.366Z,51.42
2023-07-15T09:44:58.090Z,51.62
2023-07-15T09:47:30.467Z,51.26
2023-07-15T09:49:58.428Z,50.97
2023-07-15T09:52:26.724Z,50.82
2023-07-15T09:54:55.428Z,50.00
2023-07-15T09:57:25.388Z,48.93
2023-07-15T09:59:55.440Z,48.47
2023-07-15T10:02:44.667Z,48.09
2023-07-15T10:05:15.797Z,47.33
2023-07-15T10:07:44.219Z,47.76
2023-07-15T10:10:12.804Z,47.44
2023-07-15T10:12:41.716Z,47.07
2023-07-15T10:15:10.571Z,46.82
2023-07-15T10:17:39.611Z,46.34
2023-07-15T10:20:20.676Z,46.39
2023-07-15T10:22:50.655Z,45.76
2023-07-15T10:25:18.833Z,46.10
2023-07-15T10:27:46.827Z,45.74
2023-07-15T10:30:18.018Z,45.45
2023-07-15T10:33:11.731Z,44.83
2023-07-15T10:35:42.530Z,45.23
2023-07-15T10:38:31.430Z,45.27
2023-07-15T10:41:02.599Z,44.05
2023-07-15T10:43:36.672Z,44.62
2023-07-15T10:46:16.458Z,44.32
2023-07-15T10:48:44.788Z,43.77
2023-07-15T10:51:14.122Z,43.53
2023-07-15T10:53:42.504Z,43.40
2023-07-15T10:56:13.322Z,43.11
2023-07-15T10:58:45.086Z,42.61
2023-07-15T11:01:14.944Z,42.45
2023-07-15T11:03:44.547Z,42.41
2023-07-15T11:06:14.447Z,42.90
2023-07-15T11:08:43.394Z,43.26
2023-07-15T11:11:12.763Z,43.12
2023-07-15T11:13:43.400Z,43.15
2023-07-15T11:16:11.726Z,43.37
2023-07-15T11:18:39.920Z,43.47
2023-07-15T11:21:08.634Z,43.12
2023-07-15T11:23:36.818Z,42.75
2023-07-15T11:26:11.417Z,42.01
2023-07-15T11:28:52.304Z,41.34
2023-07-15T11:31:28.502Z,40.96
2023-07-15T11:33:59.955Z,41.29
2023-07-15T11:36:27.870Z,40.38
2023-07-15T11:38:55.861Z,40.57
2023-07-15T11:41:27.555Z,40.82
2023-07-15T11:43:56.126Z,41.00
2023-07-15T11:46:25.139Z,40.94
2023-07-15T11:48:53.365Z,40.45
2023-07-15T11:51:23.900Z,40.42
2023-07-15T11:53:55.960Z,39.15
2023-07-15T11:56:44.870Z,38.84
2023-07-15T11:59:14.959Z,38.64
2023-07-15T12:01:43.620Z,38.33
2023-07-15T12:04:16.241Z,37.80
2023-07-15T12:06:56.381Z,37.48
2023-07-15T12:09:25.358Z,36.48
2023-07-15T12:11:53.796Z,36.99
2023-07-15T12:14:22.401Z,36.59
2023-07-15T12:16:53.611Z,36.59
2023-07-15T12:19:22.153Z,36.22
2023-07-15T12:21:50.110Z,35.93
2023-07-15T12:24:18.204Z,35.57
2023-07-15T12:26:46.291Z,35.55
2023-07-15T12:29:14.302Z,35.67
2023-07-15T12:31:42.334Z,35.30
2023-07-15T12:34:10.240Z,34.19
2023-07-15T12:36:38.283Z,34.94
2023-07-15T12:39:06.792Z,35.94
2023-07-15T12:41:34.787Z,35.02
2023-07-15T12:44:02.770Z,33.79
2023-07-15T12:46:30.736Z,33.27
2023-07-15T12:48:58.795Z,32.78
2023-07-15T12:51:27.387Z,32.96
2023-07-15T12:53:55.348Z,33.13
2023-07-15T12:56:24.229Z,32.79
2023-07-15T12:58:52.228Z,32.63
2023-07-15T13:01:20.553Z,33.09
2023-07-15T13:03:48.630Z,33.67
2023-07-15T13:06:17.162Z,34.29
2023-07-15T13:08:45.318Z,34.01
2023-07-15T13:11:13.484Z,33.63
2023-07-15T13:13:41.672Z,33.94
2023-07-15T13:16:09.766Z,34.73
2023-07-15T13:18:37.819Z,35.09
2023-07-15T13:21:05.779Z,35.23
2023-07-15T13:23:33.881Z,35.35
2023-07-15T13:26:01.962Z,35.01
2023-07-15T13:28:29.921Z,34.69
2023-07-15T13:30:57.985Z,35.35
2023-07-15T13:33:25.953Z,35.73
2023-07-15T13:35:55.357Z,35.98
2023-07-15T13:38:23.352Z,35.55
2023-07-15T13:40:51.531Z,34.87
2023-07-15T13:43:19.510Z,35.03
2023-07-15T13:45:48.290Z,35.66
2023-07-15T13:48:16.252Z,35.53
2023-07-15T13:50:44.227Z,35.61
2023-07-15T13:53:12.193Z,35.36
2023-07-15T13:55:40.094Z,34.69
2023-07-15T13:58:08.111Z,34.57
2023-07-15T14:00:36.266Z,33.90
2023-07-15T14:03:04.679Z,33.71
2023-07-15T14:05:32.719Z,33.77
2023-07-15T14:08:00.691Z,33.83
2023-07-15T14:10:29.560Z,33.80
2023-07-15T14:12:57.661Z,33.93
2023-07-15T14:15:25.674Z,34.13
2023-07-15T14:17:53.597Z,33.80
2023-07-15T14:20:21.695Z,33.47
2023-07-15T14:22:50.603Z,33.27
2023-07-15T14:25:20.330Z,33.26
2023-07-15T14:27:48.375Z,33.37
2023-07-15T14:30:16.471Z,33.51
2023-07-15T14:32:44.489Z,33.53
2023-07-15T14:35:12.473Z,33.22
2023-07-15T14:37:40.484Z,32.58
2023-07-15T14:40:09.487Z,32.53
2023-07-15T14:42:39.857Z,32.63
2023-07-15T14:45:08.776Z,33.15
2023-07-15T14:47:38.104Z,33.22
2023-07-15T14:50:07.134Z,33.00
2023-07-15T14:52:35.235Z,32.83
2023-07-15T14:55:03.267Z,32.86
2023-07-15T14:57:31.254Z,32.57
2023-07-15T14:59:59.169Z,32.33
2023-07-15T15:02:27.162Z,32.53
2023-07-15T15:04:55.116Z,33.13
2023-07-15T15:07:23.451Z,33.82
2023-07-15T15:09:51.517Z,34.11
2023-07-15T15:12:19.484Z,35.30
2023-07-15T15:14:47.458Z,38.63
2023-07-15T15:17:16.170Z,38.71
2023-07-15T15:19:44.116Z,38.65
2023-07-15T15:22:12.052Z,39.34
2023-07-15T15:24:39.979Z,39.58
2023-07-15T15:27:08.241Z,39.91
2023-07-15T15:29:36.308Z,40.74
2023-07-15T15:32:04.343Z,41.24
2023-07-15T15:34:32.482Z,41.47
2023-07-15T15:37:00.469Z,41.83
2023-07-15T15:39:28.419Z,42.56
2023-07-15T15:41:56.458Z,43.03
2023-07-15T15:44:24.662Z,43.04
2023-07-15T15:46:52.804Z,43.42
2023-07-15T15:49:21.293Z,43.77
2023-07-15T15:51:49.265Z,44.30
2023-07-15T15:54:17.232Z,44.12
2023-07-15T15:56:45.209Z,44.30
2023-07-15T15:59:13.174Z,44.45
2023-07-15T16:01:41.139Z,44.15
2023-07-15T16:04:09.192Z,43.74
2023-07-15T16:06:38.276Z,43.86
2023-07-15T16:09:14.310Z,43.65
2023-07-15T16:11:51.777Z,43.32
2023-07-15T16:14:19.749Z,43.20
2023-07-15T16:16:52.062Z,43.03
2023-07-15T16:19:24.539Z,42.31
2023-07-15T16:21:53.586Z,41.79
2023-07-15T16:24:26.617Z,41.12
2023-07-15T16:26:55.598Z,40.47
2023-07-15T16:29:24.404Z,40.07
2023-07-15T16:31:52.912Z,39.96
2023-07-15T16:34:24.949Z,40.31
2023-07-15T16:36:52.879Z,40.40
2023-07-15T16:39:20.836Z,40.11
2023-07-15T16:41:48.823Z,39.41
2023-07-15T16:44:16.740Z,39.32
2023-07-15T16:46:44.640Z,39.32
2023-07-15T16:49:12.683Z,38.45
2023-07-15T16:51:41.410Z,38.36
2023-07-15T16:54:09.459Z,38.13
2023-07-15T16:56:37.491Z,38.09
2023-07-15T16:59:05.852Z,38.09
2023-07-15T17:01:33.851Z,37.95
2023-07-15T17:04:01.892Z,37.88
2023-07-15T17:06:29.801Z,38.12
2023-07-15T17:08:57.731Z,38.67
2023-07-15T17:11:25.636Z,38.32
2023-07-15T17:13:53.579Z,38.19
2023-07-15T17:16:21.633Z,38.27
2023-07-15T17:18:49.604Z,38.36
2023-07-15T17:21:17.569Z,38.52
2023-07-15T17:23:45.660Z,38.54
2023-07-15T17:26:13.519Z,38.36
2023-07-15T17:28:41.468Z,38.36
2023-07-15T17:31:10.450Z,38.30
2023-07-15T17:33:38.419Z,38.35
2023-07-15T17:36:06.589Z,38.53
2023-07-15T17:38:34.511Z,38.82
2023-07-15T17:41:02.491Z,39.11
2023-07-15T17:43:30.416Z,39.03
2023-07-15T17:45:58.425Z,38.84
2023-07-15T17:48:26.334Z,39.08
2023-07-15T17:50:54.287Z,39.13
2023-07-15T17:53:22.313Z,39.21
2023-07-15T17:55:53.244Z,39.35
2023-07-15T17:58:21.298Z,39.59
2023-07-15T18:00:49.717Z,40.06
2023-07-15T18:03:17.821Z,40.28
2023-07-15T18:05:45.995Z,40.72
2023-07-15T18:08:17.076Z,41.43
2023-07-15T18:10:45.877Z,41.91
2023-07-15T18:13:13.822Z,42.02
2023-07-15T18:15:41.832Z,42.31
2023-07-15T18:18:10.574Z,42.71
2023-07-15T18:20:38.607Z,43.37
2023-07-15T18:23:06.633Z,43.64
2023-07-15T18:25:34.612Z,43.66
2023-07-15T18:28:02.536Z,43.81
2023-07-15T18:30:30.378Z,44.11
2023-07-15T18:32:58.420Z,44.44
2023-07-15T18:35:26.509Z,45.39
2023-07-15T18:37:54.567Z,46.55
2023-07-15T18:40:22.597Z,47.49
2023-07-15T18:42:50.498Z,48.01
2023-07-15T18:45:21.514Z,48.44
2023-07-15T18:47:58.513Z,48.45
2023-07-15T18:50:26.468Z,49.70
2023-07-15T18:52:54.400Z,49.57
2023-07-15T18:55:22.297Z,49.04
2023-07-15T18:57:50.312Z,47.62
2023-07-15T19:00:18.252Z,47.07
2023-07-15T19:02:46.322Z,46.65
2023-07-15T19:05:14.433Z,46.79
2023-07-15T19:07:42.482Z,47.52
2023-07-15T19:10:10.961Z,47.92
2023-07-15T19:12:39.036Z,48.33
2023-07-15T19:15:07.414Z,48.72
2023-07-15T19:17:35.423Z,48.70
2023-07-15T19:20:03.410Z,49.18
2023-07-15T19:22:31.451Z,49.95
2023-07-15T19:24:59.384Z,49.77
2023-07-15T19:27:27.387Z,49.42
2023-07-15T19:29:55.314Z,49.51
2023-07-15T19:32:23.501Z,49.87
2023-07-15T19:34:51.573Z,49.95
2023-07-15T19:37:19.625Z,49.94
2023-07-15T19:39:49.817Z,50.15
2023-07-15T19:42:20.253Z,50.70
2023-07-15T19:44:48.161Z,50.83
2023-07-15T19:47:17.268Z,50.82
2023-07-15T19:49:45.442Z,51.12
2023-07-15T19:52:13.405Z,51.80
2023-07-15T19:54:41.341Z,52.04
2023-07-15T19:57:09.301Z,51.77
2023-07-15T19:59:37.360Z,51.17
2023-07-15T20:02:05.618Z,51.08
2023-07-15T20:04:33.632Z,51.39
2023-07-15T20:07:01.542Z,51.85
2023-07-15T20:09:29.574Z,53.23
2023-07-15T20:11:57.528Z,53.40
2023-07-15T20:14:25.499Z,53.94
2023-07-15T20:16:53.936Z,54.27
2023-07-15T20:19:22.934Z,54.41
2023-07-15T20:21:52.822Z,54.77
2023-07-15T20:24:20.792Z,55.19
2023-07-15T20:26:48.890Z,56.17
2023-07-15T20:29:16.857Z,56.68
2023-07-15T20:31:44.786Z,56.96
2023-07-15T20:34:12.910Z,57.21
2023-07-15T20:36:40.880Z,56.58
2023-07-15T20:39:08.932Z,56.17
2023-07-15T20:41:36.991Z,55.54
2023-07-15T20:44:05.133Z,54.98
2023-07-15T20:46:33.096Z,54.57
2023-07-15T20:49:01.195Z,54.34
2023-07-15T20:51:37.380Z,54.59
2023-07-15T20:54:05.672Z,55.73
2023-07-15T20:56:35.879Z,55.63
2023-07-15T20:59:04.190Z,56.02
2023-07-15T21:01:32.722Z,57.58
2023-07-15T21:04:00.815Z,58.49
2023-07-15T21:06:28.748Z,60.38
2023-07-15T21:08:59.503Z,61.48
2023-07-15T21:11:28.832Z,60.64
2023-07-15T21:13:56.774Z,61.11
2023-07-15T21:16:24.755Z,63.28
2023-07-15T21:18:52.763Z,65.59
2023-07-15T21:21:20.719Z,68.38
2023-07-15T21:23:48.725Z,70.16
2023-07-15T21:26:19.617Z,71.63
2023-07-15T21:28:47.653Z,75.48
2023-07-15T21:31:15.852Z,74.24
2023-07-15T21:33:46.756Z,76.15
2023-07-15T21:36:14.967Z,77.15
2023-07-15T21:38:44.144Z,77.60
2023-07-15T21:41:12.112Z,76.91
2023-07-15T21:43:40.039Z,78.64
2023-07-15T21:46:08.025Z,82.17
2023-07-15T21:48:35.982Z,79.20
2023-07-15T21:51:05.616Z,80.33
2023-07-15T21:53:33.645Z,80.07
2023-07-15T21:56:02.484Z,80.08
2023-07-15T21:58:30.345Z,80.55
2023-07-15T22:01:02.081Z,80.88
2023-07-15T22:03:30.127Z,80.43
2023-07-15T22:05:58.602Z,79.34
2023-07-15T22:08:26.806Z,79.38
2023-07-15T22:10:54.730Z,79.70
2023-07-15T22:13:22.702Z,80.33
2023-07-15T22:15:50.759Z,80.57
2023-07-15T22:18:34.252Z,80.56
2023-07-15T22:21:06.961Z,81.29
2023-07-15T22:23:34.942Z,81.91
2023-07-15T22:26:03.053Z,81.83
2023-07-15T22:28:31.098Z,82.17
2023-07-15T22:30:59.090Z,82.07
2023-07-15T22:33:27.155Z,82.17
2023-07-15T22:35:55.128Z,82.05
2023-07-15T22:38:23.268Z,81.66
2023-07-15T22:40:51.258Z,81.39
2023-07-15T22:43:20.909Z,81.14
2023-07-15T22:45:56.891Z,80.81
2023-07-15T22:48:27.748Z,80.44
2023-07-15T22:50:55.985Z,80.22
2023-07-15T22:53:26.415Z,80.00
2023-07-15T22:55:54.649Z,79.97
2023-07-15T22:58:22.993Z,79.68
2023-07-15T23:00:53.199Z,80.00
2023-07-15T23:03:23.158Z,83.16
2023-07-15T23:05:54.110Z,88.84
2023-07-15T23:08:22.410Z,91.66
2023-07-15T23:10:50.309Z,96.17
2023-07-15T23:13:18.272Z,98.11
2023-07-15T23:15:46.232Z,100.00
2023-07-15T23:18:14.208Z,100.00
2023-07-15T23:20:42.488Z,100.00
2023-07-15T23:23:17.105Z,100.00
2023-07-15T23:25:47.574Z,100.00
2023-07-15T23:28:16.081Z,100.00
2023-07-15T23:30:51.079Z,100.00
2023-07-15T23:33:19.136Z,100.00
2023-07-15T23:35:47.515Z,100.00
2023-07-15T23:38:15.456Z,100.00
2023-07-15T23:40:43.647Z,100.00
2023-07-15T23:43:12.922Z,100.00
2023-07-15T23:45:40.878Z,100.00
2023-07-15T23:48:09.123Z,100.00
2023-07-15T23:50:37.298Z,100.00
2023-07-15T23:53:05.462Z,100.00
2023-07-15T23:55:33.448Z,100.00
2023-07-15T23:58:02.334Z,100.00
